createdAt,value
2018-02-08T00:00:53.277Z,32.30
2018-02-08T00:03:20.143Z,32.07
2018-02-08T00:05:47.096Z,34.60
2018-02-08T00:08:14.060Z,33.57
2018-02-08T00:10:41.027Z,33.27
2018-02-08T00:13:07.901Z,33.00
2018-02-08T00:15:34.827Z,33.27
2018-02-08T00:18:01.696Z,31.33
2018-02-08T00:20:28.569Z,32.40
2018-02-08T00:22:55.458Z,34.70
2018-02-08T00:25:22.702Z,33.77
2018-02-08T00:27:49.628Z,33.73
2018-02-08T00:30:16.497Z,34.53
2018-02-08T00:32:43.363Z,34.70
2018-02-08T00:35:10.312Z,32.83
2018-02-08T00:37:37.244Z,32.23
2018-02-08T00:40:04.112Z,35.07
2018-02-08T00:42:30.969Z,33.30
2018-02-08T00:44:57.896Z,32.90
2018-02-08T00:47:25.164Z,33.47
2018-02-08T00:49:52.461Z,32.70
2018-02-08T00:52:19.342Z,32.80
2018-02-08T00:54:46.287Z,33.50
2018-02-08T00:57:13.153Z,33.50
2018-02-08T00:59:40.003Z,32.97
2018-02-08T01:02:06.878Z,34.53
2018-02-08T01:04:33.766Z,33.30
2018-02-08T01:07:00.616Z,34.00
2018-02-08T01:09:27.488Z,32.70
2018-02-08T01:11:54.751Z,33.97
2018-02-08T01:14:22.067Z,34.30
2018-02-08T01:16:48.920Z,35.97
2018-02-08T01:19:15.768Z,33.53
2018-02-08T01:21:42.671Z,33.50
2018-02-08T01:24:09.524Z,33.93
2018-02-08T01:26:36.452Z,35.03
2018-02-08T01:29:03.298Z,34.80
2018-02-08T01:31:30.270Z,35.43
2018-02-08T01:33:57.135Z,31.67
2018-02-08T01:36:24.079Z,34.17
2018-02-08T01:38:51.234Z,32.00
2018-02-08T01:41:18.472Z,33.50
2018-02-08T01:43:45.787Z,37.20
2018-02-08T01:46:12.666Z,34.00
2018-02-08T01:48:39.512Z,33.73
2018-02-08T01:51:06.389Z,32.40
2018-02-08T01:53:33.330Z,33.40
2018-02-08T01:56:00.367Z,34.53
2018-02-08T01:58:27.359Z,31.97
2018-02-08T02:00:54.204Z,33.40
2018-02-08T02:03:21.155Z,32.67
2018-02-08T02:05:48.004Z,33.63
2018-02-08T02:08:14.966Z,32.73
2018-02-08T02:10:41.941Z,31.10
2018-02-08T02:13:08.807Z,32.73
2018-02-08T02:15:35.668Z,34.77
2018-02-08T02:18:02.711Z,34.30
2018-02-08T02:20:29.572Z,34.17
2018-02-08T02:22:56.526Z,34.43
2018-02-08T02:25:23.480Z,34.53
2018-02-08T02:27:50.429Z,33.33
2018-02-08T02:30:17.304Z,34.93
2018-02-08T02:32:44.256Z,35.33
2018-02-08T02:35:11.113Z,33.83
2018-02-08T02:37:38.066Z,35.30
2018-02-08T02:40:04.937Z,34.40
2018-02-08T02:42:31.827Z,34.77
2018-02-08T02:44:58.690Z,35.00
2018-02-08T02:47:25.958Z,33.33
2018-02-08T02:49:52.867Z,36.60
2018-02-08T02:52:19.717Z,34.07
2018-02-08T02:54:46.584Z,36.47
2018-02-08T02:57:13.452Z,35.13
2018-02-08T02:59:40.304Z,34.43
2018-02-08T03:02:07.367Z,37.07
2018-02-08T03:04:34.195Z,35.77
2018-02-08T03:07:01.166Z,35.50
2018-02-08T03:09:28.149Z,38.63
2018-02-08T03:11:55.024Z,35.83
2018-02-08T03:14:21.878Z,34.90
2018-02-08T03:16:48.740Z,34.50
2018-02-08T03:19:15.614Z,34.30
2018-02-08T03:21:42.921Z,34.03
2018-02-08T03:24:09.791Z,34.57
2018-02-08T03:26:36.660Z,33.20
2018-02-08T03:29:03.520Z,33.00
2018-02-08T03:31:30.466Z,34.00
2018-02-08T03:33:57.430Z,33.97
2018-02-08T03:36:24.286Z,32.73
2018-02-08T03:38:51.245Z,33.20
2018-02-08T03:41:18.092Z,34.10
2018-02-08T03:43:45.043Z,33.53
2018-02-08T03:46:11.883Z,34.73
2018-02-08T03:48:38.865Z,34.63
2018-02-08T03:51:05.704Z,34.57
2018-02-08T03:53:32.678Z,36.33
2018-02-08T03:55:59.665Z,35.93
2018-02-08T03:58:26.613Z,36.43
2018-02-08T04:00:53.542Z,34.50
2018-02-08T04:03:20.504Z,35.13
2018-02-08T04:05:47.370Z,33.60
2018-02-08T04:08:14.248Z,34.13
2018-02-08T04:10:41.096Z,35.07
2018-02-08T04:13:07.956Z,36.17
2018-02-08T04:15:35.001Z,34.87
2018-02-08T04:18:01.956Z,32.30
2018-02-08T04:20:28.831Z,35.27
2018-02-08T04:22:55.793Z,35.60
2018-02-08T04:25:23.150Z,35.63
2018-02-08T04:27:50.102Z,39.23
2018-02-08T04:30:16.959Z,36.13
2018-02-08T04:32:43.925Z,34.53
2018-02-08T04:35:10.764Z,35.20
2018-02-08T04:37:37.723Z,34.57
2018-02-08T04:40:16.511Z,36.37
2018-02-08T04:42:55.376Z,36.07
2018-02-08T04:45:34.705Z,35.50
2018-02-08T04:48:07.485Z,35.90
2018-02-08T04:50:34.333Z,35.90
2018-02-08T04:53:01.201Z,39.37
2018-02-08T04:55:28.135Z,37.27
2018-02-08T04:57:54.978Z,41.03
2018-02-08T05:00:21.957Z,42.27
2018-02-08T05:02:48.900Z,44.00
2018-02-08T05:05:15.791Z,40.17
2018-02-08T05:07:42.808Z,42.17
2018-02-08T05:10:10.028Z,41.37
2018-02-08T05:12:36.896Z,40.87
2018-02-08T05:15:04.213Z,41.27
2018-02-08T05:17:31.069Z,38.97
2018-02-08T05:19:57.965Z,41.30
2018-02-08T05:22:24.809Z,41.90
2018-02-08T05:24:51.671Z,40.60
2018-02-08T05:27:18.603Z,41.83
2018-02-08T05:29:45.463Z,44.67
2018-02-08T05:32:12.307Z,43.00
2018-02-08T05:34:39.260Z,43.63
2018-02-08T05:37:06.103Z,44.27
2018-02-08T05:39:32.943Z,41.90
2018-02-08T05:42:00.197Z,45.80
2018-02-08T05:44:27.601Z,43.10
2018-02-08T05:46:54.439Z,41.93
2018-02-08T05:49:21.732Z,44.97
2018-02-08T05:51:48.612Z,41.60
2018-02-08T05:54:15.551Z,40.73
2018-02-08T05:56:42.408Z,41.33
2018-02-08T05:59:09.477Z,43.60
2018-02-08T06:01:36.367Z,45.10
2018-02-08T06:04:03.304Z,42.00
2018-02-08T06:06:30.364Z,45.17
2018-02-08T06:08:57.812Z,46.27
2018-02-08T06:11:24.768Z,42.87
2018-02-08T06:13:51.636Z,43.63
2018-02-08T06:16:18.550Z,42.93
2018-02-08T06:18:45.391Z,43.70
2018-02-08T06:21:12.287Z,46.70
2018-02-08T06:23:39.214Z,46.20
2018-02-08T06:26:06.127Z,49.00
2018-02-08T06:28:33.081Z,43.00
2018-02-08T06:30:59.994Z,43.93
2018-02-08T06:33:26.939Z,44.80
2018-02-08T06:35:53.783Z,44.70
2018-02-08T06:38:20.637Z,41.70
2018-02-08T06:40:47.587Z,43.90
2018-02-08T06:43:14.456Z,43.10
2018-02-08T06:45:41.308Z,41.97
2018-02-08T06:48:08.189Z,43.20
2018-02-08T06:50:35.048Z,43.67
2018-02-08T06:53:01.988Z,40.13
2018-02-08T06:55:28.855Z,43.10
2018-02-08T06:57:55.804Z,42.87
2018-02-08T07:00:22.643Z,40.87
2018-02-08T07:02:49.545Z,41.90
2018-02-08T07:05:16.403Z,41.47
2018-02-08T07:07:43.667Z,38.50
2018-02-08T07:10:10.916Z,39.00
2018-02-08T07:12:37.776Z,41.30
2018-02-08T07:15:04.621Z,39.50
2018-02-08T07:17:31.554Z,42.53
2018-02-08T07:19:58.421Z,40.40
2018-02-08T07:22:25.764Z,40.90
2018-02-08T07:24:53.037Z,42.03
2018-02-08T07:27:20.032Z,42.20
2018-02-08T07:29:46.965Z,43.13
2018-02-08T07:32:13.860Z,42.07
2018-02-08T07:34:40.934Z,42.20
2018-02-08T07:37:07.734Z,45.67
2018-02-08T07:39:34.692Z,43.90
2018-02-08T07:42:01.604Z,42.87
2018-02-08T07:44:28.492Z,45.30
2018-02-08T07:46:55.507Z,43.43
2018-02-08T07:49:22.371Z,44.37
2018-02-08T07:51:49.288Z,43.63
2018-02-08T07:54:16.126Z,45.60
2018-02-08T07:56:42.981Z,44.03
2018-02-08T07:59:09.852Z,45.40
2018-02-08T08:01:36.801Z,46.67
2018-02-08T08:04:03.676Z,44.63
2018-02-08T08:06:30.539Z,44.27
2018-02-08T08:08:57.591Z,44.67
2018-02-08T08:11:24.431Z,43.67
2018-02-08T08:13:51.403Z,45.67
2018-02-08T08:16:18.263Z,44.17
2018-02-08T08:18:45.137Z,44.37
2018-02-08T08:21:11.972Z,43.37
2018-02-08T08:23:38.824Z,40.20
2018-02-08T08:26:05.696Z,43.77
2018-02-08T08:28:32.560Z,41.93
2018-02-08T08:30:59.408Z,42.63
2018-02-08T08:33:26.291Z,43.20
2018-02-08T08:35:53.232Z,42.60
2018-02-08T08:38:20.177Z,43.97
2018-02-08T08:40:47.052Z,43.70
2018-02-08T08:43:13.979Z,40.57
2018-02-08T08:45:40.824Z,42.50
2018-02-08T08:48:07.703Z,42.47
2018-02-08T08:50:34.603Z,40.07
2018-02-08T08:53:01.414Z,40.63
2018-02-08T08:55:28.299Z,41.07
2018-02-08T08:57:55.167Z,42.77
2018-02-08T09:00:22.036Z,41.90
2018-02-08T09:02:48.952Z,41.70
2018-02-08T09:05:15.797Z,42.00
2018-02-08T09:07:42.659Z,41.30
2018-02-08T09:10:09.514Z,40.00
2018-02-08T09:12:36.493Z,40.07
2018-02-08T09:15:03.425Z,41.60
2018-02-08T09:17:30.403Z,42.57
2018-02-08T09:19:57.265Z,41.60
2018-02-08T09:22:24.253Z,40.67
2018-02-08T09:24:51.055Z,40.90
2018-02-08T09:27:17.916Z,42.30
2018-02-08T09:29:44.815Z,40.97
2018-02-08T09:32:11.687Z,41.30
2018-02-08T09:34:38.564Z,43.43
2018-02-08T09:37:05.799Z,40.73
2018-02-08T09:39:32.722Z,41.53
2018-02-08T09:41:59.684Z,39.87
2018-02-08T09:44:26.553Z,41.37
2018-02-08T09:46:53.409Z,43.20
2018-02-08T09:49:20.367Z,42.23
2018-02-08T09:51:47.315Z,42.30
2018-02-08T09:54:14.189Z,39.00
2018-02-08T09:56:41.200Z,41.23
2018-02-08T09:59:08.097Z,42.23
2018-02-08T10:01:34.939Z,41.60
2018-02-08T10:04:01.824Z,40.07
2018-02-08T10:06:28.735Z,41.50
2018-02-08T10:08:56.008Z,39.90
2018-02-08T10:11:22.868Z,41.53
2018-02-08T10:13:49.733Z,41.80
2018-02-08T10:16:16.594Z,42.10
2018-02-08T10:18:43.462Z,41.03
2018-02-08T10:21:10.322Z,41.00
2018-02-08T10:23:37.180Z,40.67
2018-02-08T10:26:04.068Z,45.27
2018-02-08T10:28:30.900Z,40.90
2018-02-08T10:30:57.840Z,40.90
2018-02-08T10:33:24.704Z,40.27
2018-02-08T10:35:51.615Z,41.77
2018-02-08T10:38:18.946Z,41.70
2018-02-08T10:40:45.800Z,40.17
2018-02-08T10:43:12.735Z,41.20
2018-02-08T10:45:39.611Z,44.50
2018-02-08T10:48:06.564Z,40.10
2018-02-08T10:50:33.618Z,41.40
2018-02-08T10:53:00.599Z,44.20
2018-02-08T10:55:27.576Z,42.00
2018-02-08T10:57:54.487Z,41.13
2018-02-08T11:00:21.444Z,39.07
2018-02-08T11:02:48.675Z,44.43
2018-02-08T11:05:15.959Z,41.70
2018-02-08T11:07:43.266Z,41.87
2018-02-08T11:10:10.109Z,41.97
2018-02-08T11:12:37.063Z,39.70
2018-02-08T11:15:03.912Z,40.53
2018-02-08T11:17:30.782Z,41.83
2018-02-08T11:19:57.767Z,39.90
2018-02-08T11:22:24.632Z,41.00
2018-02-08T11:24:51.517Z,41.10
2018-02-08T11:27:18.840Z,40.00
2018-02-08T11:29:45.684Z,39.43
2018-02-08T11:32:12.560Z,39.57
2018-02-08T11:34:39.416Z,39.30
2018-02-08T11:37:06.241Z,40.93
2018-02-08T11:39:33.114Z,40.43
2018-02-08T11:41:59.961Z,40.57
2018-02-08T11:44:26.946Z,41.50
2018-02-08T11:46:53.877Z,43.40
2018-02-08T11:49:21.120Z,42.00
2018-02-08T11:51:48.414Z,41.83
2018-02-08T11:54:15.286Z,40.43
2018-02-08T11:56:42.242Z,41.70
2018-02-08T11:59:09.187Z,39.83
2018-02-08T12:01:36.177Z,40.20
2018-02-08T12:04:03.094Z,42.70
2018-02-08T12:06:30.120Z,41.83
2018-02-08T12:08:57.463Z,44.50
2018-02-08T12:11:24.347Z,41.50
2018-02-08T12:13:51.220Z,40.57
2018-02-08T12:16:18.534Z,42.50
2018-02-08T12:18:45.380Z,42.13
2018-02-08T12:21:12.250Z,41.87
2018-02-08T12:23:39.140Z,41.27
2018-02-08T12:26:06.008Z,41.83
2018-02-08T12:28:32.898Z,39.50
2018-02-08T12:30:59.767Z,40.20
2018-02-08T12:33:26.680Z,40.13
2018-02-08T12:35:53.683Z,39.00
2018-02-08T12:38:20.664Z,40.10
2018-02-08T12:40:47.590Z,40.43
2018-02-08T12:43:14.888Z,41.77
2018-02-08T12:45:41.917Z,40.17
2018-02-08T12:48:09.157Z,38.97
2018-02-08T12:50:36.435Z,40.63
2018-02-08T12:53:03.380Z,42.27
2018-02-08T12:55:30.657Z,42.10
2018-02-08T12:57:58.083Z,39.70
2018-02-08T13:00:24.955Z,40.27
2018-02-08T13:02:51.799Z,39.23
2018-02-08T13:05:18.655Z,40.63
2018-02-08T13:07:45.600Z,39.50
2018-02-08T13:10:12.559Z,41.03
2018-02-08T13:12:39.456Z,40.77
2018-02-08T13:15:06.800Z,38.50
2018-02-08T13:17:33.660Z,41.50
2018-02-08T13:20:00.557Z,41.27
2018-02-08T13:22:27.838Z,40.17
2018-02-08T13:24:54.828Z,42.77
2018-02-08T13:27:21.697Z,42.00
2018-02-08T13:29:48.552Z,40.70
2018-02-08T13:32:15.423Z,41.17
2018-02-08T13:34:42.355Z,40.60
2018-02-08T13:37:09.236Z,40.70
2018-02-08T13:39:36.198Z,42.70
2018-02-08T13:42:03.105Z,40.10
2018-02-08T13:44:29.971Z,39.97
2018-02-08T13:46:56.937Z,41.03
2018-02-08T13:49:23.817Z,40.70
2018-02-08T13:51:50.748Z,40.63
2018-02-08T13:54:17.707Z,39.90
2018-02-08T13:56:44.581Z,42.10
2018-02-08T13:59:11.546Z,38.50
2018-02-08T14:01:38.486Z,40.53
2018-02-08T14:04:05.444Z,40.03
2018-02-08T14:06:32.471Z,39.70
2018-02-08T14:08:59.884Z,42.37
2018-02-08T14:11:26.829Z,43.27
2018-02-08T14:13:53.720Z,40.60
2018-02-08T14:16:20.584Z,41.97
2018-02-08T14:18:48.694Z,41.37
2018-02-08T14:21:16.003Z,41.67
2018-02-08T14:23:42.966Z,41.67
2018-02-08T14:26:09.820Z,42.70
2018-02-08T14:28:36.777Z,42.03
2018-02-08T14:31:03.826Z,42.40
2018-02-08T14:33:30.683Z,38.77
2018-02-08T14:35:57.643Z,39.43
2018-02-08T14:38:24.595Z,43.77
2018-02-08T14:40:51.475Z,41.80
2018-02-08T14:43:18.443Z,42.30
2018-02-08T14:45:45.291Z,41.27
2018-02-08T14:48:12.132Z,41.67
2018-02-08T14:50:39.096Z,41.87
2018-02-08T14:53:05.968Z,39.37
2018-02-08T14:55:32.854Z,42.40
2018-02-08T14:57:59.843Z,41.17
2018-02-08T15:00:26.921Z,41.07
2018-02-08T15:02:53.766Z,43.40
2018-02-08T15:05:20.634Z,41.17
2018-02-08T15:07:47.496Z,42.27
2018-02-08T15:10:14.392Z,41.67
2018-02-08T15:12:41.229Z,40.43
2018-02-08T15:15:08.197Z,43.80
2018-02-08T15:17:35.133Z,41.40
2018-02-08T15:20:02.045Z,41.27
2018-02-08T15:22:29.108Z,42.20
2018-02-08T15:24:55.930Z,42.97
2018-02-08T15:27:22.780Z,41.60
2018-02-08T15:29:49.719Z,44.97
2018-02-08T15:32:16.577Z,42.53
2018-02-08T15:34:43.552Z,42.90
2018-02-08T15:37:10.401Z,40.33
2018-02-08T15:39:37.260Z,45.10
2018-02-08T15:42:04.133Z,45.57
2018-02-08T15:44:31.078Z,42.90
2018-02-08T15:46:57.958Z,44.63
2018-02-08T15:49:24.838Z,42.80
2018-02-08T15:51:52.250Z,43.77
2018-02-08T15:54:19.116Z,43.20
2018-02-08T15:56:45.968Z,41.30
2018-02-08T15:59:12.848Z,45.50
2018-02-08T16:01:39.784Z,44.57
2018-02-08T16:04:06.939Z,44.67
2018-02-08T16:06:33.797Z,47.13
2018-02-08T16:09:00.767Z,46.30
2018-02-08T16:11:27.690Z,44.70
2018-02-08T16:13:54.960Z,48.60
2018-02-08T16:16:21.933Z,43.97
2018-02-08T16:18:48.908Z,45.37
2018-02-08T16:21:15.750Z,47.70
2018-02-08T16:23:42.627Z,42.70
2018-02-08T16:26:09.497Z,43.60
2018-02-08T16:28:36.337Z,44.23
2018-02-08T16:31:03.268Z,45.20
2018-02-08T16:33:30.155Z,48.37
2018-02-08T16:35:57.142Z,44.70
2018-02-08T16:38:24.043Z,45.67
2018-02-08T16:40:50.995Z,44.73
2018-02-08T16:43:17.803Z,49.13
2018-02-08T16:45:44.696Z,47.00
2018-02-08T16:48:11.592Z,48.80
2018-02-08T16:50:38.458Z,44.30
2018-02-08T16:53:05.419Z,46.00
2018-02-08T16:55:32.437Z,44.00
2018-02-08T16:57:59.444Z,44.93
2018-02-08T17:00:26.318Z,46.40
2018-02-08T17:02:53.186Z,46.60
2018-02-08T17:05:20.031Z,43.17
2018-02-08T17:07:47.047Z,45.20
2018-02-08T17:10:14.328Z,45.80
2018-02-08T17:12:41.185Z,45.70
2018-02-08T17:15:08.184Z,46.57
2018-02-08T17:17:35.068Z,47.00
2018-02-08T17:20:02.319Z,47.33
2018-02-08T17:22:29.284Z,46.43
2018-02-08T17:24:56.171Z,46.37
2018-02-08T17:27:23.076Z,45.73
2018-02-08T17:29:50.096Z,47.87
2018-02-08T17:32:16.959Z,46.80
2018-02-08T17:34:43.808Z,46.60
2018-02-08T17:37:10.688Z,46.50
2018-02-08T17:39:37.533Z,46.20
2018-02-08T17:42:04.415Z,45.73
2018-02-08T17:44:31.380Z,47.90
2018-02-08T17:46:58.326Z,47.63
2018-02-08T17:49:25.258Z,46.10
2018-02-08T17:51:52.119Z,47.03
2018-02-08T17:54:19.084Z,47.77
2018-02-08T17:56:45.972Z,46.30
2018-02-08T17:59:12.850Z,49.63
2018-02-08T18:01:39.859Z,47.90
2018-02-08T18:04:06.720Z,42.93
2018-02-08T18:06:33.682Z,49.37
2018-02-08T18:09:00.616Z,47.67
2018-02-08T18:11:27.534Z,45.93
2018-02-08T18:13:54.417Z,45.23
2018-02-08T18:16:21.309Z,44.47
2018-02-08T18:18:48.261Z,48.73
2018-02-08T18:21:15.234Z,48.07
2018-02-08T18:23:42.187Z,45.00
2018-02-08T18:26:09.053Z,45.40
2018-02-08T18:28:35.893Z,48.93
2018-02-08T18:31:02.813Z,48.70
2018-02-08T18:33:30.075Z,43.87
2018-02-08T18:35:56.994Z,45.50
2018-02-08T18:38:23.930Z,48.20
2018-02-08T18:40:50.804Z,47.80
2018-02-08T18:43:17.752Z,47.10
2018-02-08T18:45:44.707Z,44.67
2018-02-08T18:48:11.597Z,48.13
2018-02-08T18:50:38.486Z,48.47
2018-02-08T18:53:05.400Z,49.67
2018-02-08T18:55:32.324Z,46.00
2018-02-08T18:57:59.324Z,46.03
2018-02-08T19:00:26.282Z,46.37
2018-02-08T19:02:53.101Z,44.73
2018-02-08T19:05:19.996Z,45.73
2018-02-08T19:07:46.937Z,46.47
2018-02-08T19:10:14.300Z,49.37
2018-02-08T19:12:41.168Z,46.60
2018-02-08T19:15:08.029Z,47.10
2018-02-08T19:17:34.962Z,47.27
2018-02-08T19:20:01.885Z,49.40
2018-02-08T19:22:28.767Z,47.80
2018-02-08T19:24:56.178Z,45.47
2018-02-08T19:27:23.051Z,48.20
2018-02-08T19:29:49.977Z,49.27
2018-02-08T19:32:16.829Z,47.73
2018-02-08T19:34:43.716Z,46.73
2018-02-08T19:37:10.585Z,46.00
2018-02-08T19:39:37.451Z,44.33
2018-02-08T19:42:04.321Z,48.00
2018-02-08T19:44:31.602Z,46.23
2018-02-08T19:46:58.479Z,45.57
2018-02-08T19:49:25.344Z,44.30
2018-02-08T19:51:52.331Z,44.40
2018-02-08T19:54:19.244Z,47.90
2018-02-08T19:56:46.213Z,45.33
2018-02-08T19:59:13.168Z,46.33
2018-02-08T20:01:40.018Z,45.70
2018-02-08T20:04:06.939Z,45.80
2018-02-08T20:06:33.793Z,47.23
2018-02-08T20:09:00.774Z,46.33
2018-02-08T20:11:27.695Z,43.27
2018-02-08T20:13:54.624Z,45.23
2018-02-08T20:16:21.512Z,47.13
2018-02-08T20:18:48.379Z,45.20
2018-02-08T20:21:15.295Z,46.30
2018-02-08T20:23:42.267Z,47.00
2018-02-08T20:26:09.129Z,44.93
2018-02-08T20:28:36.096Z,46.93
2018-02-08T20:31:02.965Z,47.00
2018-02-08T20:33:29.892Z,47.33
2018-02-08T20:35:56.777Z,56.80
2018-02-08T20:38:23.659Z,49.80
2018-02-08T20:40:50.511Z,48.57
2018-02-08T20:43:17.784Z,49.07
2018-02-08T20:45:45.039Z,47.40
2018-02-08T20:48:11.993Z,47.67
2018-02-08T20:50:38.871Z,48.07
2018-02-08T20:53:05.826Z,45.73
2018-02-08T20:55:33.084Z,47.73
2018-02-08T20:57:59.954Z,45.63
2018-02-08T21:00:27.220Z,50.20
2018-02-08T21:02:54.511Z,49.03
2018-02-08T21:05:21.448Z,47.10
2018-02-08T21:07:48.364Z,46.43
2018-02-08T21:10:15.216Z,44.93
2018-02-08T21:12:42.157Z,49.10
2018-02-08T21:15:09.028Z,46.30
2018-02-08T21:17:36.587Z,45.97
2018-02-08T21:20:03.567Z,47.70
2018-02-08T21:22:30.524Z,49.00
2018-02-08T21:24:57.508Z,47.77
2018-02-08T21:27:24.419Z,48.10
2018-02-08T21:29:51.480Z,47.40
2018-02-08T21:32:18.471Z,46.10
2018-02-08T21:34:45.350Z,44.90
2018-02-08T21:37:12.962Z,47.23
2018-02-08T21:39:39.802Z,48.80
2018-02-08T21:42:07.073Z,47.43
2018-02-08T21:44:33.985Z,46.97
2018-02-08T21:47:00.911Z,48.50
2018-02-08T21:49:27.779Z,45.53
2018-02-08T21:51:54.742Z,50.50
2018-02-08T21:54:21.616Z,47.70
2018-02-08T21:56:48.475Z,47.10
2018-02-08T21:59:15.358Z,49.23
2018-02-08T22:01:42.299Z,48.97
2018-02-08T22:04:09.581Z,44.83
2018-02-08T22:06:36.836Z,45.60
2018-02-08T22:09:03.721Z,45.00
2018-02-08T22:11:30.587Z,46.27
2018-02-08T22:13:57.473Z,46.30
2018-02-08T22:16:24.320Z,46.27
2018-02-08T22:18:51.179Z,43.80
2018-02-08T22:21:18.068Z,45.87
2018-02-08T22:23:44.912Z,43.73
2018-02-08T22:26:11.797Z,44.80
2018-02-08T22:28:38.716Z,45.90
2018-02-08T22:31:05.985Z,42.93
2018-02-08T22:33:33.050Z,45.50
2018-02-08T22:36:00.214Z,43.53
2018-02-08T22:38:27.078Z,44.53
2018-02-08T22:40:54.016Z,41.67
2018-02-08T22:43:20.898Z,43.53
2018-02-08T22:45:47.748Z,45.90
2018-02-08T22:48:14.676Z,46.10
2018-02-08T22:50:41.540Z,43.67
2018-02-08T22:53:08.584Z,44.47
2018-02-08T22:55:35.846Z,44.97
2018-02-08T22:58:02.733Z,46.80
2018-02-08T23:00:29.670Z,44.60
2018-02-08T23:02:56.601Z,44.43
2018-02-08T23:05:23.921Z,46.17
2018-02-08T23:07:50.791Z,42.67
2018-02-08T23:10:17.734Z,46.50
2018-02-08T23:12:44.608Z,46.73
2018-02-08T23:15:11.566Z,44.37
2018-02-08T23:17:39.310Z,46.63
2018-02-08T23:20:06.180Z,44.37
2018-02-08T23:22:33.136Z,44.37
2018-02-08T23:25:00.104Z,46.33
2018-02-08T23:27:26.976Z,44.00
2018-02-08T23:29:53.913Z,46.10
2018-02-08T23:32:20.965Z,45.40
2018-02-08T23:34:47.841Z,46.30
2018-02-08T23:37:14.735Z,44.20
2018-02-08T23:39:41.605Z,43.20
2018-02-08T23:42:08.526Z,43.47
2018-02-08T23:44:35.418Z,43.83
2018-02-08T23:47:03.178Z,42.70
2018-02-08T23:49:30.025Z,43.57
2018-02-08T23:51:56.940Z,45.27
2018-02-08T23:54:24.213Z,51.83
2018-02-08T23:56:51.083Z,47.80
2018-02-08T23:59:18.027Z,50.77
